sensor_id;sensor_type;location;lat;lon;timestamp;P1;durP1;ratioP1;P2;durP2;ratioP2
54454;SDS011;40364;52.270;10.546;2023-04-25T00:01:22;7.55;;;2.47;;
54454;SDS011;40364;52.270;10.546;2023-04-25T00:03:48;8.93;;;3.80;;
54454;SDS011;40364;52.270;10.546;2023-04-25T00:06:15;11.50;;;2.92;;
54454;SDS011;40364;52.270;10.546;2023-04-25T00:08:42;7.28;;;3.28;;
54454;SDS011;40364;52.270;10.546;2023-04-25T00:11:10;7.47;;;3.40;;
54454;SDS011;40364;52.270;10.546;2023-04-25T00:13:37;10.20;;;2.92;;
54454;SDS011;40364;52.270;10.546;2023-04-25T00:16:06;14.75;;;2.92;;
54454;SDS011;40364;52.270;10.546;2023-04-25T00:18:33;7.72;;;3.53;;
54454;SDS011;40364;52.270;10.546;2023-04-25T00:20:59;8.55;;;3.58;;
54454;SDS011;40364;52.270;10.546;2023-04-25T00:23:26;9.93;;;2.67;;
54454;SDS011;40364;52.270;10.546;2023-04-25T00:25:52;14.05;;;3.70;;
54454;SDS011;40364;52.270;10.546;2023-04-25T00:28:20;10.10;;;2.78;;
54454;SDS011;40364;52.270;10.546;2023-04-25T00:30:46;7.07;;;2.70;;
54454;SDS011;40364;52.270;10.546;2023-04-25T00:33:13;11.32;;;4.13;;
54454;SDS011;40364;52.270;10.546;2023-04-25T00:35:39;15.25;;;3.72;;
54454;SDS011;40364;52.270;10.546;2023-04-25T00:38:06;6.82;;;3.00;;
54454;SDS011;40364;52.270;10.546;2023-04-25T00:40:32;9.85;;;3.33;;
54454;SDS011;40364;52.270;10.546;2023-04-25T00:42:58;18.58;;;4.20;;
54454;SDS011;40364;52.270;10.546;2023-04-25T00:45:28;8.05;;;3.40;;
54454;SDS011;40364;52.270;10.546;2023-04-25T00:47:55;10.88;;;4.53;;
54454;SDS011;40364;52.270;10.546;2023-04-25T00:50:21;10.63;;;3.70;;
54454;SDS011;40364;52.270;10.546;2023-04-25T00:52:48;8.65;;;3.30;;
54454;SDS011;40364;52.270;10.546;2023-04-25T00:55:14;8.52;;;2.90;;
54454;SDS011;40364;52.270;10.546;2023-04-25T00:57:41;8.00;;;3.20;;
54454;SDS011;40364;52.270;10.546;2023-04-25T01:00:08;9.40;;;3.30;;
54454;SDS011;40364;52.270;10.546;2023-04-25T01:02:37;11.18;;;3.10;;
54454;SDS011;40364;52.270;10.546;2023-04-25T01:05:04;12.82;;;3.63;;
54454;SDS011;40364;52.270;10.546;2023-04-25T01:07:30;9.85;;;3.65;;
54454;SDS011;40364;52.270;10.546;2023-04-25T01:09:56;11.00;;;2.97;;
54454;SDS011;40364;52.270;10.546;2023-04-25T01:12:23;8.77;;;3.38;;
54454;SDS011;40364;52.270;10.546;2023-04-25T01:14:50;6.72;;;3.47;;
54454;SDS011;40364;52.270;10.546;2023-04-25T01:17:17;9.20;;;3.35;;
54454;SDS011;40364;52.270;10.546;2023-04-25T01:19:44;9.43;;;3.13;;
54454;SDS011;40364;52.270;10.546;2023-04-25T01:22:14;11.40;;;3.60;;
54454;SDS011;40364;52.270;10.546;2023-04-25T01:24:42;12.07;;;3.20;;
54454;SDS011;40364;52.270;10.546;2023-04-25T01:27:09;10.65;;;2.83;;
54454;SDS011;40364;52.270;10.546;2023-04-25T01:29:35;9.68;;;3.67;;
54454;SDS011;40364;52.270;10.546;2023-04-25T01:32:02;18.05;;;3.42;;
54454;SDS011;40364;52.270;10.546;2023-04-25T01:34:29;8.85;;;3.53;;
54454;SDS011;40364;52.270;10.546;2023-04-25T01:36:55;14.05;;;4.03;;
54454;SDS011;40364;52.270;10.546;2023-04-25T01:39:23;12.50;;;3.72;;
54454;SDS011;40364;52.270;10.546;2023-04-25T01:41:49;13.27;;;4.13;;
54454;SDS011;40364;52.270;10.546;2023-04-25T01:44:16;12.30;;;3.70;;
54454;SDS011;40364;52.270;10.546;2023-04-25T01:46:42;9.13;;;3.20;;
54454;SDS011;40364;52.270;10.546;2023-04-25T01:49:09;7.40;;;3.47;;
54454;SDS011;40364;52.270;10.546;2023-04-25T01:51:35;11.05;;;3.42;;
54454;SDS011;40364;52.270;10.546;2023-04-25T01:54:02;13.55;;;4.00;;
54454;SDS011;40364;52.270;10.546;2023-04-25T01:56:36;10.18;;;3.75;;
54454;SDS011;40364;52.270;10.546;2023-04-25T01:59:02;13.90;;;4.88;;
54454;SDS011;40364;52.270;10.546;2023-04-25T02:01:29;11.73;;;3.85;;
54454;SDS011;40364;52.270;10.546;2023-04-25T02:03:55;13.77;;;3.90;;
54454;SDS011;40364;52.270;10.546;2023-04-25T02:06:22;11.38;;;4.00;;
54454;SDS011;40364;52.270;10.546;2023-04-25T02:08:48;15.27;;;3.47;;
54454;SDS011;40364;52.270;10.546;2023-04-25T02:11:15;12.13;;;4.40;;
54454;SDS011;40364;52.270;10.546;2023-04-25T02:13:42;8.65;;;3.63;;
54454;SDS011;40364;52.270;10.546;2023-04-25T02:16:09;11.48;;;4.13;;
54454;SDS011;40364;52.270;10.546;2023-04-25T02:18:35;13.50;;;4.57;;
54454;SDS011;40364;52.270;10.546;2023-04-25T02:21:02;13.57;;;4.10;;
54454;SDS011;40364;52.270;10.546;2023-04-25T02:23:29;10.60;;;4.32;;
54454;SDS011;40364;52.270;10.546;2023-04-25T02:25:55;6.90;;;4.18;;
54454;SDS011;40364;52.270;10.546;2023-04-25T02:28:23;8.52;;;3.95;;
54454;SDS011;40364;52.270;10.546;2023-04-25T02:30:50;11.38;;;3.67;;
54454;SDS011;40364;52.270;10.546;2023-04-25T02:33:17;9.35;;;4.03;;
54454;SDS011;40364;52.270;10.546;2023-04-25T02:35:46;10.70;;;3.85;;
54454;SDS011;40364;52.270;10.546;2023-04-25T02:38:12;17.40;;;4.55;;
54454;SDS011;40364;52.270;10.546;2023-04-25T02:40:38;9.25;;;4.93;;
54454;SDS011;40364;52.270;10.546;2023-04-25T02:43:05;8.25;;;3.83;;
54454;SDS011;40364;52.270;10.546;2023-04-25T02:45:32;14.68;;;4.57;;
54454;SDS011;40364;52.270;10.546;2023-04-25T02:47:59;9.85;;;5.28;;
54454;SDS011;40364;52.270;10.546;2023-04-25T02:50:26;13.75;;;4.45;;
54454;SDS011;40364;52.270;10.546;2023-04-25T02:52:52;9.75;;;4.72;;
54454;SDS011;40364;52.270;10.546;2023-04-25T02:55:19;15.80;;;5.47;;
54454;SDS011;40364;52.270;10.546;2023-04-25T02:57:45;8.68;;;4.32;;
54454;SDS011;40364;52.270;10.546;2023-04-25T03:00:12;13.00;;;4.60;;
54454;SDS011;40364;52.270;10.546;2023-04-25T03:02:39;13.05;;;5.20;;
54454;SDS011;40364;52.270;10.546;2023-04-25T03:05:07;11.60;;;5.47;;
54454;SDS011;40364;52.270;10.546;2023-04-25T03:07:33;15.07;;;4.40;;
54454;SDS011;40364;52.270;10.546;2023-04-25T03:10:00;12.32;;;4.85;;
54454;SDS011;40364;52.270;10.546;2023-04-25T03:12:27;13.27;;;5.40;;
54454;SDS011;40364;52.270;10.546;2023-04-25T03:14:53;17.17;;;5.88;;
54454;SDS011;40364;52.270;10.546;2023-04-25T03:17:20;14.55;;;5.07;;
54454;SDS011;40364;52.270;10.546;2023-04-25T03:19:46;12.15;;;5.45;;
54454;SDS011;40364;52.270;10.546;2023-04-25T03:22:14;16.48;;;5.38;;
54454;SDS011;40364;52.270;10.546;2023-04-25T03:24:40;15.02;;;5.13;;
54454;SDS011;40364;52.270;10.546;2023-04-25T03:27:07;9.52;;;4.68;;
54454;SDS011;40364;52.270;10.546;2023-04-25T03:29:33;16.17;;;5.53;;
54454;SDS011;40364;52.270;10.546;2023-04-25T03:31:59;9.63;;;5.00;;
54454;SDS011;40364;52.270;10.546;2023-04-25T03:34:26;15.88;;;5.38;;
54454;SDS011;40364;52.270;10.546;2023-04-25T03:36:53;14.75;;;5.35;;
54454;SDS011;40364;52.270;10.546;2023-04-25T03:39:20;11.40;;;5.57;;
54454;SDS011;40364;52.270;10.546;2023-04-25T03:41:47;13.35;;;5.32;;
54454;SDS011;40364;52.270;10.546;2023-04-25T03:44:13;13.18;;;5.43;;
54454;SDS011;40364;52.270;10.546;2023-04-25T03:46:39;10.25;;;4.80;;
54454;SDS011;40364;52.270;10.546;2023-04-25T03:49:06;11.10;;;4.93;;
54454;SDS011;40364;52.270;10.546;2023-04-25T03:51:32;8.82;;;4.45;;
54454;SDS011;40364;52.270;10.546;2023-04-25T03:53:59;14.02;;;4.38;;
54454;SDS011;40364;52.270;10.546;2023-04-25T03:56:26;21.38;;;5.22;;
54454;SDS011;40364;52.270;10.546;2023-04-25T03:58:53;18.83;;;4.60;;
54454;SDS011;40364;52.270;10.546;2023-04-25T04:01:19;15.60;;;4.15;;
54454;SDS011;40364;52.270;10.546;2023-04-25T04:03:46;11.75;;;4.85;;
54454;SDS011;40364;52.270;10.546;2023-04-25T04:06:12;18.83;;;4.20;;
54454;SDS011;40364;52.270;10.546;2023-04-25T04:08:40;22.48;;;4.82;;
54454;SDS011;40364;52.270;10.546;2023-04-25T04:11:06;12.40;;;3.50;;
54454;SDS011;40364;52.270;10.546;2023-04-25T04:13:34;16.63;;;3.70;;
54454;SDS011;40364;52.270;10.546;2023-04-25T04:16:00;8.02;;;3.55;;
54454;SDS011;40364;52.270;10.546;2023-04-25T04:18:27;18.23;;;2.80;;
54454;SDS011;40364;52.270;10.546;2023-04-25T04:20:53;21.83;;;3.97;;
54454;SDS011;40364;52.270;10.546;2023-04-25T04:23:20;11.38;;;3.28;;
54454;SDS011;40364;52.270;10.546;2023-04-25T04:25:47;12.70;;;3.20;;
54454;SDS011;40364;52.270;10.546;2023-04-25T04:28:14;12.88;;;3.58;;
54454;SDS011;40364;52.270;10.546;2023-04-25T04:30:42;12.40;;;3.47;;
54454;SDS011;40364;52.270;10.546;2023-04-25T04:33:12;13.43;;;2.42;;
54454;SDS011;40364;52.270;10.546;2023-04-25T04:35:38;8.07;;;2.75;;
54454;SDS011;40364;52.270;10.546;2023-04-25T04:38:05;12.88;;;3.17;;
54454;SDS011;40364;52.270;10.546;2023-04-25T04:40:31;11.10;;;2.95;;
54454;SDS011;40364;52.270;10.546;2023-04-25T04:42:57;17.13;;;3.67;;
54454;SDS011;40364;52.270;10.546;2023-04-25T04:45:24;16.73;;;3.53;;
54454;SDS011;40364;52.270;10.546;2023-04-25T04:47:54;15.93;;;2.97;;
54454;SDS011;40364;52.270;10.546;2023-04-25T04:50:21;22.15;;;3.08;;
54454;SDS011;40364;52.270;10.546;2023-04-25T04:52:47;17.33;;;4.07;;
54454;SDS011;40364;52.270;10.546;2023-04-25T04:55:14;16.52;;;4.20;;
54454;SDS011;40364;52.270;10.546;2023-04-25T04:57:40;13.35;;;2.92;;
54454;SDS011;40364;52.270;10.546;2023-04-25T05:00:07;13.00;;;3.28;;
54454;SDS011;40364;52.270;10.546;2023-04-25T05:02:36;14.32;;;3.15;;
54454;SDS011;40364;52.270;10.546;2023-04-25T05:05:04;21.02;;;3.25;;
54454;SDS011;40364;52.270;10.546;2023-04-25T05:07:30;13.32;;;2.72;;
54454;SDS011;40364;52.270;10.546;2023-04-25T05:09:57;13.07;;;3.20;;
54454;SDS011;40364;52.270;10.546;2023-04-25T05:12:23;13.57;;;4.25;;
54454;SDS011;40364;52.270;10.546;2023-04-25T05:14:49;13.00;;;3.53;;
54454;SDS011;40364;52.270;10.546;2023-04-25T05:17:16;17.27;;;2.78;;
54454;SDS011;40364;52.270;10.546;2023-04-25T05:19:42;26.75;;;3.47;;
54454;SDS011;40364;52.270;10.546;2023-04-25T05:22:10;11.27;;;3.03;;
54454;SDS011;40364;52.270;10.546;2023-04-25T05:24:37;12.23;;;3.17;;
54454;SDS011;40364;52.270;10.546;2023-04-25T05:27:04;9.73;;;2.70;;
54454;SDS011;40364;52.270;10.546;2023-04-25T05:29:31;13.98;;;3.08;;
54454;SDS011;40364;52.270;10.546;2023-04-25T05:31:57;12.48;;;3.15;;
54454;SDS011;40364;52.270;10.546;2023-04-25T05:34:24;23.63;;;3.20;;
54454;SDS011;40364;52.270;10.546;2023-04-25T05:36:51;14.05;;;3.05;;
54454;SDS011;40364;52.270;10.546;2023-04-25T05:39:18;24.83;;;3.30;;
54454;SDS011;40364;52.270;10.546;2023-04-25T05:41:45;16.25;;;3.25;;
54454;SDS011;40364;52.270;10.546;2023-04-25T05:44:12;15.63;;;2.60;;
54454;SDS011;40364;52.270;10.546;2023-04-25T05:46:38;15.88;;;3.20;;
54454;SDS011;40364;52.270;10.546;2023-04-25T05:49:05;14.82;;;2.67;;
54454;SDS011;40364;52.270;10.546;2023-04-25T05:51:31;10.00;;;2.22;;
54454;SDS011;40364;52.270;10.546;2023-04-25T05:53:57;15.00;;;3.00;;
54454;SDS011;40364;52.270;10.546;2023-04-25T05:56:25;16.27;;;3.70;;
54454;SDS011;40364;52.270;10.546;2023-04-25T05:58:52;17.95;;;3.15;;
54454;SDS011;40364;52.270;10.546;2023-04-25T06:01:18;10.77;;;3.03;;
54454;SDS011;40364;52.270;10.546;2023-04-25T06:03:44;12.45;;;2.22;;
54454;SDS011;40364;52.270;10.546;2023-04-25T06:06:11;17.27;;;2.92;;
54454;SDS011;40364;52.270;10.546;2023-04-25T06:08:38;13.38;;;2.47;;
54454;SDS011;40364;52.270;10.546;2023-04-25T06:11:04;13.13;;;2.03;;
54454;SDS011;40364;52.270;10.546;2023-04-25T06:13:32;11.30;;;2.63;;
54454;SDS011;40364;52.270;10.546;2023-04-25T06:15:59;12.90;;;3.10;;
54454;SDS011;40364;52.270;10.546;2023-04-25T06:18:25;17.58;;;2.67;;
54454;SDS011;40364;52.270;10.546;2023-04-25T06:20:51;14.68;;;2.72;;
54454;SDS011;40364;52.270;10.546;2023-04-25T06:23:18;19.65;;;2.40;;
54454;SDS011;40364;52.270;10.546;2023-04-25T06:25:44;15.80;;;3.03;;
54454;SDS011;40364;52.270;10.546;2023-04-25T06:28:11;15.30;;;3.40;;
54454;SDS011;40364;52.270;10.546;2023-04-25T06:30:38;10.52;;;2.45;;
54454;SDS011;40364;52.270;10.546;2023-04-25T06:33:05;10.38;;;1.95;;
54454;SDS011;40364;52.270;10.546;2023-04-25T06:35:33;15.77;;;2.55;;
54454;SDS011;40364;52.270;10.546;2023-04-25T06:38:00;23.48;;;3.00;;
54454;SDS011;40364;52.270;10.546;2023-04-25T06:40:26;20.30;;;2.60;;
54454;SDS011;40364;52.270;10.546;2023-04-25T06:42:53;15.05;;;2.70;;
54454;SDS011;40364;52.270;10.546;2023-04-25T06:45:19;11.00;;;2.17;;
54454;SDS011;40364;52.270;10.546;2023-04-25T06:47:47;15.23;;;3.47;;
54454;SDS011;40364;52.270;10.546;2023-04-25T06:50:13;14.10;;;1.90;;
54454;SDS011;40364;52.270;10.546;2023-04-25T06:52:40;11.50;;;2.30;;
54454;SDS011;40364;52.270;10.546;2023-04-25T06:55:06;12.10;;;2.03;;
54454;SDS011;40364;52.270;10.546;2023-04-25T06:57:33;13.20;;;2.60;;
54454;SDS011;40364;52.270;10.546;2023-04-25T06:59:59;14.50;;;2.10;;
54454;SDS011;40364;52.270;10.546;2023-04-25T07:02:25;12.50;;;2.33;;
54454;SDS011;40364;52.270;10.546;2023-04-25T07:04:53;13.77;;;2.72;;
54454;SDS011;40364;52.270;10.546;2023-04-25T07:07:21;16.00;;;2.70;;
54454;SDS011;40364;52.270;10.546;2023-04-25T07:09:47;12.90;;;1.95;;
54454;SDS011;40364;52.270;10.546;2023-04-25T07:12:14;13.90;;;1.90;;
54454;SDS011;40364;52.270;10.546;2023-04-25T07:14:40;15.80;;;2.50;;
54454;SDS011;40364;52.270;10.546;2023-04-25T07:17:07;15.27;;;2.38;;
54454;SDS011;40364;52.270;10.546;2023-04-25T07:19:33;7.47;;;1.60;;
54454;SDS011;40364;52.270;10.546;2023-04-25T07:22:01;9.80;;;1.27;;
54454;SDS011;40364;52.270;10.546;2023-04-25T07:24:28;13.75;;;1.50;;
54454;SDS011;40364;52.270;10.546;2023-04-25T07:26:54;6.57;;;1.48;;
54454;SDS011;40364;52.270;10.546;2023-04-25T07:29:21;21.48;;;3.05;;
54454;SDS011;40364;52.270;10.546;2023-04-25T07:31:47;8.32;;;1.77;;
54454;SDS011;40364;52.270;10.546;2023-04-25T07:34:14;10.00;;;2.00;;
54454;SDS011;40364;52.270;10.546;2023-04-25T07:36:40;6.45;;;1.58;;
54454;SDS011;40364;52.270;10.546;2023-04-25T07:39:08;9.38;;;1.58;;
54454;SDS011;40364;52.270;10.546;2023-04-25T07:41:35;9.45;;;1.60;;
54454;SDS011;40364;52.270;10.546;2023-04-25T07:44:01;9.35;;;0.90;;
54454;SDS011;40364;52.270;10.546;2023-04-25T07:46:27;5.65;;;0.90;;
54454;SDS011;40364;52.270;10.546;2023-04-25T07:48:54;10.55;;;2.03;;
54454;SDS011;40364;52.270;10.546;2023-04-25T07:51:20;7.03;;;1.63;;
54454;SDS011;40364;52.270;10.546;2023-04-25T07:53:47;4.28;;;1.30;;
54454;SDS011;40364;52.270;10.546;2023-04-25T07:56:15;15.38;;;1.50;;
54454;SDS011;40364;52.270;10.546;2023-04-25T07:58:41;7.57;;;1.52;;
54454;SDS011;40364;52.270;10.546;2023-04-25T08:01:07;8.98;;;1.55;;
54454;SDS011;40364;52.270;10.546;2023-04-25T08:03:34;12.85;;;2.03;;
54454;SDS011;40364;52.270;10.546;2023-04-25T08:06:00;8.70;;;1.60;;
54454;SDS011;40364;52.270;10.546;2023-04-25T08:08:27;5.05;;;1.17;;
54454;SDS011;40364;52.270;10.546;2023-04-25T08:10:53;7.40;;;1.40;;
54454;SDS011;40364;52.270;10.546;2023-04-25T08:13:21;9.98;;;1.38;;
54454;SDS011;40364;52.270;10.546;2023-04-25T08:15:48;9.25;;;1.98;;
54454;SDS011;40364;52.270;10.546;2023-04-25T08:18:14;12.32;;;1.92;;
54454;SDS011;40364;52.270;10.546;2023-04-25T08:20:41;15.27;;;2.13;;
54454;SDS011;40364;52.270;10.546;2023-04-25T08:23:07;9.32;;;1.40;;
54454;SDS011;40364;52.270;10.546;2023-04-25T08:25:35;7.28;;;1.45;;
54454;SDS011;40364;52.270;10.546;2023-04-25T08:28:02;13.23;;;1.98;;
54454;SDS011;40364;52.270;10.546;2023-04-25T08:30:29;11.95;;;2.17;;
54454;SDS011;40364;52.270;10.546;2023-04-25T08:32:56;7.00;;;1.50;;
54454;SDS011;40364;52.270;10.546;2023-04-25T08:35:22;13.30;;;1.88;;
54454;SDS011;40364;52.270;10.546;2023-04-25T08:37:49;7.20;;;1.42;;
54454;SDS011;40364;52.270;10.546;2023-04-25T08:40:16;5.22;;;1.45;;
54454;SDS011;40364;52.270;10.546;2023-04-25T08:42:42;9.50;;;1.85;;
54454;SDS011;40364;52.270;10.546;2023-04-25T08:45:09;10.15;;;2.45;;
54454;SDS011;40364;52.270;10.546;2023-04-25T08:47:37;6.40;;;2.10;;
54454;SDS011;40364;52.270;10.546;2023-04-25T08:50:04;10.02;;;2.72;;
54454;SDS011;40364;52.270;10.546;2023-04-25T08:52:35;7.82;;;2.35;;
54454;SDS011;40364;52.270;10.546;2023-04-25T08:55:02;8.38;;;2.95;;
54454;SDS011;40364;52.270;10.546;2023-04-25T08:57:29;8.20;;;2.40;;
54454;SDS011;40364;52.270;10.546;2023-04-25T08:59:57;8.35;;;2.53;;
54454;SDS011;40364;52.270;10.546;2023-04-25T09:02:24;9.20;;;2.05;;
54454;SDS011;40364;52.270;10.546;2023-04-25T09:04:52;8.57;;;1.58;;
54454;SDS011;40364;52.270;10.546;2023-04-25T09:07:19;9.98;;;1.90;;
54454;SDS011;40364;52.270;10.546;2023-04-25T09:09:46;10.25;;;1.95;;
54454;SDS011;40364;52.270;10.546;2023-04-25T09:12:13;7.85;;;1.65;;
54454;SDS011;40364;52.270;10.546;2023-04-25T09:14:39;10.27;;;1.77;;
54454;SDS011;40364;52.270;10.546;2023-04-25T09:17:07;6.25;;;1.55;;
54454;SDS011;40364;52.270;10.546;2023-04-25T09:19:34;6.25;;;1.75;;
54454;SDS011;40364;52.270;10.546;2023-04-25T09:22:03;5.70;;;1.33;;
54454;SDS011;40364;52.270;10.546;2023-04-25T09:24:30;8.18;;;1.60;;
54454;SDS011;40364;52.270;10.546;2023-04-25T09:26:57;10.73;;;1.45;;
54454;SDS011;40364;52.270;10.546;2023-04-25T09:29:28;12.63;;;1.60;;
54454;SDS011;40364;52.270;10.546;2023-04-25T09:31:57;3.60;;;1.35;;
54454;SDS011;40364;52.270;10.546;2023-04-25T09:34:38;9.20;;;0.95;;
54454;SDS011;40364;52.270;10.546;2023-04-25T09:37:06;6.78;;;1.15;;
54454;SDS011;40364;52.270;10.546;2023-04-25T09:39:32;6.55;;;1.33;;
54454;SDS011;40364;52.270;10.546;2023-04-25T09:42:00;8.00;;;1.52;;
54454;SDS011;40364;52.270;10.546;2023-04-25T09:44:26;5.10;;;1.25;;
54454;SDS011;40364;52.270;10.546;2023-04-25T09:46:53;2.22;;;1.15;;
54454;SDS011;40364;52.270;10.546;2023-04-25T09:49:19;8.02;;;1.20;;
54454;SDS011;40364;52.270;10.546;2023-04-25T09:51:53;5.43;;;1.42;;
54454;SDS011;40364;52.270;10.546;2023-04-25T09:54:21;5.68;;;1.33;;
54454;SDS011;40364;52.270;10.546;2023-04-25T09:56:48;4.55;;;1.50;;
54454;SDS011;40364;52.270;10.546;2023-04-25T09:59:14;5.82;;;1.40;;
54454;SDS011;40364;52.270;10.546;2023-04-25T10:01:41;9.23;;;1.23;;
54454;SDS011;40364;52.270;10.546;2023-04-25T10:04:10;11.60;;;1.55;;
54454;SDS011;40364;52.270;10.546;2023-04-25T10:06:37;3.22;;;1.38;;
54454;SDS011;40364;52.270;10.546;2023-04-25T10:09:04;13.48;;;1.92;;
54454;SDS011;40364;52.270;10.546;2023-04-25T10:11:34;7.10;;;1.65;;
54454;SDS011;40364;52.270;10.546;2023-04-25T10:14:01;5.25;;;1.77;;
54454;SDS011;40364;52.270;10.546;2023-04-25T10:16:27;4.07;;;2.13;;
54454;SDS011;40364;52.270;10.546;2023-04-25T10:18:54;4.07;;;1.48;;
54454;SDS011;40364;52.270;10.546;2023-04-25T10:21:21;9.55;;;1.65;;
54454;SDS011;40364;52.270;10.546;2023-04-25T10:23:48;5.28;;;1.13;;
54454;SDS011;40364;52.270;10.546;2023-04-25T10:26:14;7.35;;;1.45;;
54454;SDS011;40364;52.270;10.546;2023-04-25T10:28:58;6.47;;;1.77;;
54454;SDS011;40364;52.270;10.546;2023-04-25T10:31:26;7.50;;;2.17;;
54454;SDS011;40364;52.270;10.546;2023-04-25T10:33:53;5.95;;;1.33;;
54454;SDS011;40364;52.270;10.546;2023-04-25T10:36:20;9.25;;;1.42;;
54454;SDS011;40364;52.270;10.546;2023-04-25T10:38:47;5.55;;;1.55;;
54454;SDS011;40364;52.270;10.546;2023-04-25T10:41:15;5.72;;;1.33;;
54454;SDS011;40364;52.270;10.546;2023-04-25T10:43:43;5.65;;;1.52;;
54454;SDS011;40364;52.270;10.546;2023-04-25T10:46:18;9.43;;;1.77;;
54454;SDS011;40364;52.270;10.546;2023-04-25T10:48:45;6.70;;;1.40;;
54454;SDS011;40364;52.270;10.546;2023-04-25T10:51:15;8.00;;;1.48;;
54454;SDS011;40364;52.270;10.546;2023-04-25T10:53:43;4.82;;;1.30;;
54454;SDS011;40364;52.270;10.546;2023-04-25T10:56:10;4.85;;;1.30;;
54454;SDS011;40364;52.270;10.546;2023-04-25T10:58:41;7.22;;;1.20;;
54454;SDS011;40364;52.270;10.546;2023-04-25T11:01:07;5.07;;;1.27;;
54454;SDS011;40364;52.270;10.546;2023-04-25T11:03:39;2.70;;;1.13;;
54454;SDS011;40364;52.270;10.546;2023-04-25T11:06:06;4.88;;;1.33;;
54454;SDS011;40364;52.270;10.546;2023-04-25T11:08:36;4.18;;;1.10;;
54454;SDS011;40364;52.270;10.546;2023-04-25T11:11:07;2.80;;;1.02;;
54454;SDS011;40364;52.270;10.546;2023-04-25T11:13:34;3.80;;;1.10;;
54454;SDS011;40364;52.270;10.546;2023-04-25T11:16:01;2.67;;;1.20;;
54454;SDS011;40364;52.270;10.546;2023-04-25T11:18:27;5.43;;;1.20;;
54454;SDS011;40364;52.270;10.546;2023-04-25T11:20:55;4.18;;;1.10;;
54454;SDS011;40364;52.270;10.546;2023-04-25T11:23:21;3.88;;;1.27;;
54454;SDS011;40364;52.270;10.546;2023-04-25T11:25:48;11.73;;;1.63;;
54454;SDS011;40364;52.270;10.546;2023-04-25T11:28:20;6.07;;;1.17;;
54454;SDS011;40364;52.270;10.546;2023-04-25T11:30:47;3.30;;;0.90;;
54454;SDS011;40364;52.270;10.546;2023-04-25T11:33:15;3.80;;;1.15;;
54454;SDS011;40364;52.270;10.546;2023-04-25T11:35:41;4.28;;;2.08;;
54454;SDS011;40364;52.270;10.546;2023-04-25T11:38:09;6.70;;;1.20;;
54454;SDS011;40364;52.270;10.546;2023-04-25T11:40:36;3.00;;;1.02;;
54454;SDS011;40364;52.270;10.546;2023-04-25T11:43:02;5.57;;;1.35;;
54454;SDS011;40364;52.270;10.546;2023-04-25T11:45:29;4.97;;;1.33;;
54454;SDS011;40364;52.270;10.546;2023-04-25T11:47:56;4.47;;;0.88;;
54454;SDS011;40364;52.270;10.546;2023-04-25T11:50:22;2.95;;;1.38;;
54454;SDS011;40364;52.270;10.546;2023-04-25T11:52:48;3.53;;;0.95;;
54454;SDS011;40364;52.270;10.546;2023-04-25T11:55:17;6.65;;;1.55;;
54454;SDS011;40364;52.270;10.546;2023-04-25T11:57:45;3.53;;;1.10;;
54454;SDS011;40364;52.270;10.546;2023-04-25T12:00:12;8.38;;;1.35;;
54454;SDS011;40364;52.270;10.546;2023-04-25T12:02:42;5.57;;;1.33;;
54454;SDS011;40364;52.270;10.546;2023-04-25T12:05:08;5.75;;;0.95;;
54454;SDS011;40364;52.270;10.546;2023-04-25T12:07:35;7.38;;;1.30;;
54454;SDS011;40364;52.270;10.546;2023-04-25T12:10:06;2.88;;;1.10;;
54454;SDS011;40364;52.270;10.546;2023-04-25T12:12:34;5.72;;;1.42;;
54454;SDS011;40364;52.270;10.546;2023-04-25T12:15:08;4.05;;;1.40;;
54454;SDS011;40364;52.270;10.546;2023-04-25T12:17:34;1.77;;;0.88;;
54454;SDS011;40364;52.270;10.546;2023-04-25T12:20:05;3.25;;;0.93;;
54454;SDS011;40364;52.270;10.546;2023-04-25T12:22:32;2.17;;;0.85;;
54454;SDS011;40364;52.270;10.546;2023-04-25T12:24:58;2.95;;;1.10;;
54454;SDS011;40364;52.270;10.546;2023-04-25T12:27:25;3.00;;;0.85;;
54454;SDS011;40364;52.270;10.546;2023-04-25T12:29:54;6.72;;;1.13;;
54454;SDS011;40364;52.270;10.546;2023-04-25T12:32:20;4.22;;;0.80;;
54454;SDS011;40364;52.270;10.546;2023-04-25T12:34:47;3.83;;;0.82;;
54454;SDS011;40364;52.270;10.546;2023-04-25T12:37:13;3.45;;;0.80;;
54454;SDS011;40364;52.270;10.546;2023-04-25T12:39:40;4.47;;;1.45;;
54454;SDS011;40364;52.270;10.546;2023-04-25T12:42:06;4.88;;;1.23;;
54454;SDS011;40364;52.270;10.546;2023-04-25T12:44:36;1.65;;;0.70;;
54454;SDS011;40364;52.270;10.546;2023-04-25T12:47:04;2.72;;;0.82;;
54454;SDS011;40364;52.270;10.546;2023-04-25T12:49:31;4.40;;;1.00;;
54454;SDS011;40364;52.270;10.546;2023-04-25T12:51:57;3.08;;;0.90;;
54454;SDS011;40364;52.270;10.546;2023-04-25T12:54:24;3.40;;;0.93;;
54454;SDS011;40364;52.270;10.546;2023-04-25T12:56:50;1.90;;;1.45;;
54454;SDS011;40364;52.270;10.546;2023-04-25T12:59:17;6.38;;;0.80;;
54454;SDS011;40364;52.270;10.546;2023-04-25T13:01:45;2.47;;;0.60;;
54454;SDS011;40364;52.270;10.546;2023-04-25T13:04:12;5.72;;;1.10;;
54454;SDS011;40364;52.270;10.546;2023-04-25T13:06:39;2.15;;;0.85;;
54454;SDS011;40364;52.270;10.546;2023-04-25T13:09:05;4.38;;;0.85;;
54454;SDS011;40364;52.270;10.546;2023-04-25T13:11:32;2.97;;;0.93;;
54454;SDS011;40364;52.270;10.546;2023-04-25T13:13:59;3.38;;;1.20;;
54454;SDS011;40364;52.270;10.546;2023-04-25T13:16:25;5.95;;;1.42;;
54454;SDS011;40364;52.270;10.546;2023-04-25T13:18:51;1.80;;;1.00;;
54454;SDS011;40364;52.270;10.546;2023-04-25T13:21:19;1.83;;;0.82;;
54454;SDS011;40364;52.270;10.546;2023-04-25T13:23:46;2.67;;;0.90;;
54454;SDS011;40364;52.270;10.546;2023-04-25T13:26:12;4.22;;;0.95;;
54454;SDS011;40364;52.270;10.546;2023-04-25T13:28:38;4.95;;;1.23;;
54454;SDS011;40364;52.270;10.546;2023-04-25T13:31:06;3.17;;;1.08;;
54454;SDS011;40364;52.270;10.546;2023-04-25T13:33:32;3.78;;;1.02;;
54454;SDS011;40364;52.270;10.546;2023-04-25T13:36:00;4.38;;;1.17;;
54454;SDS011;40364;52.270;10.546;2023-04-25T13:38:27;5.43;;;0.98;;
54454;SDS011;40364;52.270;10.546;2023-04-25T13:40:54;4.93;;;1.13;;
54454;SDS011;40364;52.270;10.546;2023-04-25T13:43:21;6.38;;;1.08;;
54454;SDS011;40364;52.270;10.546;2023-04-25T13:45:48;3.38;;;1.20;;
54454;SDS011;40364;52.270;10.546;2023-04-25T13:48:14;4.28;;;0.98;;
54454;SDS011;40364;52.270;10.546;2023-04-25T13:50:41;5.75;;;0.90;;
54454;SDS011;40364;52.270;10.546;2023-04-25T13:53:07;3.40;;;0.75;;
54454;SDS011;40364;52.270;10.546;2023-04-25T13:55:35;2.78;;;0.55;;
54454;SDS011;40364;52.270;10.546;2023-04-25T13:58:02;4.72;;;0.80;;
54454;SDS011;40364;52.270;10.546;2023-04-25T14:00:32;2.88;;;0.70;;
54454;SDS011;40364;52.270;10.546;2023-04-25T14:02:59;5.13;;;0.90;;
54454;SDS011;40364;52.270;10.546;2023-04-25T14:05:25;5.10;;;0.57;;
54454;SDS011;40364;52.270;10.546;2023-04-25T14:07:52;2.50;;;0.40;;
54454;SDS011;40364;52.270;10.546;2023-04-25T14:10:18;2.70;;;0.47;;
54454;SDS011;40364;52.270;10.546;2023-04-25T14:12:46;2.03;;;0.60;;
54454;SDS011;40364;52.270;10.546;2023-04-25T14:15:12;4.70;;;0.63;;
54454;SDS011;40364;52.270;10.546;2023-04-25T14:17:39;2.17;;;0.68;;
54454;SDS011;40364;52.270;10.546;2023-04-25T14:20:06;2.00;;;0.90;;
54454;SDS011;40364;52.270;10.546;2023-04-25T14:22:33;3.33;;;0.68;;
54454;SDS011;40364;52.270;10.546;2023-04-25T14:24:59;4.80;;;1.02;;
54454;SDS011;40364;52.270;10.546;2023-04-25T14:27:26;3.53;;;0.60;;